Time;durP1;ratioP1;P1;durP2;ratioP2;P2;SDS_P1;SDS_P2;PMS_P1;PMS_P2;Temp;Humidity;BMP_temperature;BMP_pressure;BME280_temperature;BME280_humidity;BME280_pressure;Samples;Min_cycle;Max_cycle;Signal;HPM_P1;HPM_P2
2023/07/04 00:02:16;;;;;;;801.97;540.50;;;;;;;;;;5017694;28;20435;-61
2023/07/04 00:04:44;;;;;;;755.47;503.60;;;;;;;;;;5002342;28;20461;-62
2023/07/04 00:07:11;;;;;;;777.00;554.13;;;;;;;;;;5017031;28;20489;-63
2023/07/04 00:10:06;;;;;;;162.17;146.10;;;;;;;;;;5021419;28;20422;-63
2023/07/04 00:12:34;;;;;;;27.95;25.25;;;;;;;;;;5020655;28;20431;-62
2023/07/04 00:15:02;;;;;;;1.77;1.63;;;;;;;;;;5012748;28;20450;-63
2023/07/04 00:17:33;;;;;;;1.47;1.37;;;;;;;;;;5010023;28;20438;-62
2023/07/04 00:20:04;;;;;;;0.38;0.38;;;;;;;;;;5018111;28;21008;-62
2023/07/04 00:25:52;;;;;;;296.60;271.58;;;;;;;;;;5015291;28;20434;-63
2023/07/04 00:28:25;;;;;;;0.53;0.53;;;;;;;;;;5018955;28;20991;-63
2023/07/04 00:30:55;;;;;;;26.05;23.65;;;;;;;;;;5001099;28;20441;-63
2023/07/04 00:33:24;;;;;;;827.35;599.58;;;;;;;;;;5018667;28;20443;-62
2023/07/04 00:35:59;;;;;;;825.17;555.70;;;;;;;;;;5016859;28;20473;-62
2023/07/04 00:38:27;;;;;;;809.53;532.35;;;;;;;;;;5014833;28;20462;-62
2023/07/04 00:40:57;;;;;;;776.57;497.63;;;;;;;;;;5017263;28;20501;-62
2023/07/04 00:43:27;;;;;;;750.80;484.65;;;;;;;;;;5017906;28;20525;-62
2023/07/04 00:45:57;;;;;;;725.53;467.73;;;;;;;;;;5016651;28;20491;-62
2023/07/04 00:48:28;;;;;;;730.13;455.02;;;;;;;;;;5017233;28;20450;-62
2023/07/04 00:51:04;;;;;;;731.90;442.90;;;;;;;;;;5016379;28;20517;-62
2023/07/04 00:53:35;;;;;;;747.33;462.67;;;;;;;;;;5010671;28;20431;-62
2023/07/04 00:56:02;;;;;;;762.58;470.05;;;;;;;;;;5014533;28;20433;-62
2023/07/04 00:58:31;;;;;;;702.83;422.83;;;;;;;;;;5008835;28;20441;-62
2023/07/04 01:00:59;;;;;;;753.35;470.70;;;;;;;;;;5005054;28;20542;-61
2023/07/04 01:03:26;;;;;;;740.67;435.88;;;;;;;;;;5016210;28;20468;-61
2023/07/04 01:06:00;;;;;;;723.42;431.27;;;;;;;;;;5017499;28;20430;-61
2023/07/04 01:08:34;;;;;;;723.22;430.67;;;;;;;;;;5016526;28;20450;-61
2023/07/04 01:11:04;;;;;;;708.63;423.27;;;;;;;;;;5016140;28;20434;-61
2023/07/04 01:13:34;;;;;;;717.92;429.67;;;;;;;;;;5016705;28;20513;-61
2023/07/04 01:16:12;;;;;;;735.00;440.40;;;;;;;;;;5015928;28;20435;-62
2023/07/04 01:18:41;;;;;;;716.13;410.90;;;;;;;;;;5020168;28;20431;-61
2023/07/04 01:21:09;;;;;;;740.25;441.23;;;;;;;;;;5018009;28;20564;-61
2023/07/04 01:23:45;;;;;;;718.15;433.00;;;;;;;;;;5018053;28;21145;-61
2023/07/04 01:26:21;;;;;;;743.17;445.92;;;;;;;;;;5020349;28;20514;-61
2023/07/04 01:28:51;;;;;;;717.13;424.77;;;;;;;;;;5018318;28;20919;-61
2023/07/04 01:31:20;;;;;;;690.47;461.55;;;;;;;;;;4998557;28;20489;-61
2023/07/04 01:33:48;;;;;;;687.92;386.38;;;;;;;;;;5017913;28;20553;-61
2023/07/04 01:36:22;;;;;;;696.65;396.38;;;;;;;;;;5015991;28;20507;-62
2023/07/04 01:38:55;;;;;;;717.30;412.90;;;;;;;;;;5018256;28;20869;-61
2023/07/04 01:41:24;;;;;;;787.08;486.50;;;;;;;;;;5020430;28;20927;-61
2023/07/04 01:44:00;;;;;;;763.67;478.77;;;;;;;;;;5020351;28;20431;-61
2023/07/04 01:46:28;;;;;;;763.83;459.65;;;;;;;;;;5019284;28;20504;-61
2023/07/04 01:48:56;;;;;;;784.65;492.02;;;;;;;;;;5018941;28;20466;-61
2023/07/04 01:51:24;;;;;;;800.13;511.83;;;;;;;;;;5019947;28;20435;-61
2023/07/04 01:53:51;;;;;;;824.88;542.95;;;;;;;;;;5017968;28;20554;-61
2023/07/04 01:56:22;;;;;;;728.45;417.58;;;;;;;;;;4997785;28;20520;-61
2023/07/04 01:58:49;;;;;;;751.55;451.73;;;;;;;;;;5017544;28;20437;-61
2023/07/04 02:01:16;;;;;;;754.70;453.85;;;;;;;;;;5015231;28;20434;-61
2023/07/04 02:03:43;;;;;;;748.08;450.85;;;;;;;;;;5015058;28;21015;-61
2023/07/04 02:06:11;;;;;;;737.45;447.17;;;;;;;;;;5017885;28;20445;-61
2023/07/04 02:08:38;;;;;;;706.25;404.70;;;;;;;;;;5018196;28;20437;-61
2023/07/04 02:11:06;;;;;;;727.92;433.55;;;;;;;;;;5014783;28;20484;-61
2023/07/04 02:13:33;;;;;;;735.35;443.25;;;;;;;;;;5016936;28;20438;-61
2023/07/04 02:16:00;;;;;;;755.97;477.17;;;;;;;;;;5016164;28;21101;-61
2023/07/04 02:18:28;;;;;;;759.92;480.88;;;;;;;;;;5014190;28;20984;-61
2023/07/04 02:20:55;;;;;;;760.15;493.45;;;;;;;;;;5016600;28;20503;-61
2023/07/04 02:23:22;;;;;;;764.95;486.58;;;;;;;;;;5015962;28;20467;-61
2023/07/04 02:25:49;;;;;;;747.67;469.43;;;;;;;;;;5016861;28;20514;-61
2023/07/04 02:28:16;;;;;;;744.03;459.58;;;;;;;;;;5016690;28;20435;-61
2023/07/04 02:30:52;;;;;;;740.33;456.17;;;;;;;;;;4999454;28;20463;-61
2023/07/04 02:33:20;;;;;;;717.30;506.80;;;;;;;;;;5017248;28;20793;-61
2023/07/04 02:35:48;;;;;;;721.40;424.55;;;;;;;;;;5015609;28;20534;-61
2023/07/04 02:38:15;;;;;;;719.65;420.70;;;;;;;;;;5015587;28;20494;-62
2023/07/04 02:40:44;;;;;;;748.15;456.73;;;;;;;;;;5018261;28;22005;-61
2023/07/04 02:43:11;;;;;;;730.27;441.97;;;;;;;;;;5018965;28;20442;-61
2023/07/04 02:45:39;;;;;;;746.17;457.63;;;;;;;;;;5017167;28;20427;-61
2023/07/04 02:48:06;;;;;;;748.40;462.63;;;;;;;;;;5020477;28;20429;-61
2023/07/04 02:50:34;;;;;;;745.55;468.38;;;;;;;;;;5016458;28;20434;-61
2023/07/04 02:53:01;;;;;;;745.27;463.47;;;;;;;;;;5017016;28;20503;-61
2023/07/04 02:55:29;;;;;;;756.83;467.67;;;;;;;;;;5016252;28;20435;-61
2023/07/04 02:57:56;;;;;;;740.50;500.30;;;;;;;;;;5019529;28;20804;-61
2023/07/04 03:00:23;;;;;;;736.00;483.70;;;;;;;;;;5016277;28;20471;-61
2023/07/04 03:02:51;;;;;;;754.15;476.65;;;12.10;99.90;;;;;;5020103;28;20853;-61
2023/07/04 03:05:18;;;;;;;0.03;0.03;;;12.00;99.90;;;;;;5017419;28;20440;-60
2023/07/04 03:07:45;;;;;;;12.73;11.82;;;12.00;99.90;;;;;;5015018;28;20445;-61
2023/07/04 03:10:12;;;;;;;0.10;0.10;;;12.10;99.90;;;;;;5015261;28;20916;-60
2023/07/04 03:12:39;;;;;;;643.00;519.05;;;12.10;99.90;;;;;;5018422;28;20462;-60
2023/07/04 03:15:07;;;;;;;311.75;285.05;;;12.10;99.90;;;;;;5018930;28;20521;-61
2023/07/04 03:17:33;;;;;;;297.63;268.90;;;12.00;99.90;;;;;;5005046;28;20431;-61
2023/07/04 03:20:05;;;;;;;28.30;26.65;;;12.00;99.90;;;;;;5015236;28;20538;-61
2023/07/04 03:22:32;;;;;;;104.60;93.85;;;11.90;99.90;;;;;;5017849;28;20443;-61
2023/07/04 03:24:59;;;;;;;199.18;181.50;;;11.80;99.90;;;;;;5018850;28;21043;-61
2023/07/04 03:27:26;;;;;;;699.13;526.72;;;11.80;99.90;;;;;;5020137;28;20438;-61
2023/07/04 03:29:52;;;;;;;133.48;121.25;;;11.80;99.90;;;;;;5006601;28;20428;-61
2023/07/04 03:32:19;;;;;;;98.07;90.87;;;11.90;99.90;;;;;;5019513;28;20926;-61
2023/07/04 03:34:47;;;;;;;48.90;46.22;;;11.90;99.90;;;;;;5018350;28;20525;-61
2023/07/04 03:37:14;;;;;;;503.00;451.10;;;11.90;99.90;;;;;;5018241;28;20496;-61
2023/07/04 03:39:41;;;;;;;688.33;500.77;;;;;;;;;;5021874;28;20513;-61
2023/07/04 03:42:08;;;;;;;733.45;488.17;;;12.00;99.90;;;;;;5021415;28;20442;-61
2023/07/04 03:44:35;;;;;;;733.95;481.95;;;;;;;;;;5017650;28;21237;-61
2023/07/04 03:47:02;;;;;;;709.83;488.80;;;;;;;;;;5021908;28;20426;-61
2023/07/04 03:49:32;;;;;;;394.77;345.00;;;;;;;;;;5025305;28;20554;-61
2023/07/04 03:51:59;;;;;;;680.85;463.25;;;12.10;99.90;;;;;;5022783;28;20437;-61
2023/07/04 03:54:26;;;;;;;692.37;472.93;;;12.10;99.90;;;;;;5020370;28;21142;-61
2023/07/04 03:56:53;;;;;;;588.67;486.83;;;12.10;99.90;;;;;;5020209;28;20431;-61
2023/07/04 03:59:19;;;;;;;607.53;483.50;;;12.00;99.90;;;;;;5001112;28;20488;-61
2023/07/04 04:01:46;;;;;;;723.25;463.13;;;12.10;99.90;;;;;;5020867;28;20489;-61
2023/07/04 04:04:13;;;;;;;726.92;453.58;;;12.10;99.90;;;;;;5016673;28;20496;-61
2023/07/04 04:06:40;;;;;;;707.72;437.23;;;12.10;99.90;;;;;;5021746;28;20792;-61
2023/07/04 04:09:07;;;;;;;718.53;455.48;;;12.10;99.90;;;;;;5019244;28;20534;-61
2023/07/04 04:11:33;;;;;;;684.10;414.40;;;12.20;99.90;;;;;;5022964;28;20933;-61
2023/07/04 04:14:00;;;;;;;694.92;423.88;;;12.20;99.90;;;;;;5021435;28;21009;-61
2023/07/04 04:16:30;;;;;;;671.75;407.52;;;12.20;99.90;;;;;;5019627;28;20434;-61
2023/07/04 04:18:57;;;;;;;654.30;381.20;;;12.30;99.90;;;;;;5019408;28;20520;-61
2023/07/04 04:21:24;;;;;;;692.80;419.55;;;12.90;99.90;;;;;;5023631;28;20483;-61
2023/07/04 04:23:52;;;;;;;722.92;459.42;;;12.70;99.90;;;;;;5020037;28;20431;-61
2023/07/04 04:26:21;;;;;;;740.15;469.70;;;12.40;99.90;;;;;;5021608;28;20495;-61
2023/07/04 04:28:48;;;;;;;739.88;467.98;;;12.50;99.90;;;;;;5018464;28;20516;-61
2023/07/04 04:31:15;;;;;;;636.30;512.10;;;12.50;99.90;;;;;;5019953;28;20437;-61
2023/07/04 04:33:42;;;;;;;624.20;508.70;;;12.60;99.90;;;;;;5018923;28;22957;-61
2023/07/04 04:36:16;;;;;;;742.50;510.23;;;12.60;99.90;;;;;;5019103;28;20462;-61
2023/07/04 04:38:45;;;;;;;757.40;497.13;;;12.70;99.90;;;;;;5019857;28;20434;-61
2023/07/04 04:41:12;;;;;;;772.53;511.38;;;12.90;99.90;;;;;;5020955;28;20425;-61
2023/07/04 04:43:39;;;;;;;739.38;538.67;;;13.00;99.90;;;;;;5021330;28;20481;-61
2023/07/04 04:46:06;;;;;;;566.15;516.90;;;13.20;99.90;;;;;;5016346;28;21031;-61
2023/07/04 04:48:36;;;;;;;32.70;30.57;;;13.60;99.90;;;;;;5018264;28;20435;-61
2023/07/04 04:54:01;;;;;;;3.60;0.30;;;14.70;99.90;;;;;;5016083;28;20440;-62
2023/07/04 04:56:28;;;;;;;9.75;8.95;;;15.30;99.90;;;;;;5019270;28;20429;-62
2023/07/04 04:58:56;;;;;;;489.20;446.88;;;15.70;99.90;;;;;;5000438;28;20459;-62
2023/07/04 05:01:24;;;;;;;28.17;25.83;;;16.30;99.90;;;;;;5010722;28;21477;-62
2023/07/04 05:03:56;;;;;;;1.10;1.10;;;16.30;99.90;;;;;;5019001;28;21025;-62
2023/07/04 05:06:26;;;;;;;3.80;0.50;;;16.70;99.90;;;;;;5019188;28;20449;-62
2023/07/04 05:08:53;;;;;;;0.63;0.63;;;17.30;99.90;;;;;;5020712;28;20442;-62
2023/07/04 05:11:22;;;;;;;0.50;0.40;;;17.80;99.90;;;;;;5016210;28;20471;-62
2023/07/04 05:13:50;;;;;;;1.23;0.63;;;18.20;99.90;;;;;;5011553;28;20436;-62
2023/07/04 05:16:19;;;;;;;167.98;151.60;;;18.70;99.90;;;;;;5017968;28;20784;-62
2023/07/04 05:18:52;;;;;;;894.13;803.35;;;19.20;99.90;;;;;;5014829;28;20430;-62
2023/07/04 05:21:21;;;;;;;274.27;250.50;;;19.60;99.90;;;;;;5016497;28;20462;-63
2023/07/04 05:23:50;;;;;;;0.60;0.20;;;20.00;99.90;;;;;;5013022;28;20435;-62
2023/07/04 05:26:21;;;;;;;1.33;0.30;;;20.10;99.90;;;;;;5014360;28;20989;-62
2023/07/04 05:28:51;;;;;;;0.40;0.40;;;20.10;99.90;;;;;;5017872;28;20467;-62
2023/07/04 05:31:22;;;;;;;0.20;0.20;;;20.20;99.90;;;;;;5014883;28;21001;-62
2023/07/04 05:33:52;;;;;;;0.20;0.20;;;20.10;99.90;;;;;;5010211;28;20445;-62
2023/07/04 05:36:24;;;;;;;0.17;0.17;;;20.20;99.90;;;;;;5013072;28;20558;-62
2023/07/04 05:38:53;;;;;;;0.60;0.20;;;20.50;99.90;;;;;;5014701;28;20506;-62
2023/07/04 05:41:22;;;;;;;0.82;0.82;;;20.80;99.90;;;;;;5015139;28;20493;-62
2023/07/04 05:43:49;;;;;;;237.40;217.07;;;20.80;99.90;;;;;;5011902;28;20439;-61
2023/07/04 05:46:18;;;;;;;2.70;2.60;;;21.00;99.90;;;;;;5012730;28;20431;-63
2023/07/04 05:48:46;;;;;;;96.10;88.60;;;21.00;99.90;;;;;;5016205;28;20443;-61
2023/07/04 05:51:15;;;;;;;439.88;402.38;;;21.10;99.90;;;;;;5013116;28;20443;-62
2023/07/04 05:53:46;;;;;;;368.88;337.92;;;21.20;99.90;;;;;;5016049;28;20521;-62
2023/07/04 05:56:17;;;;;;;271.10;245.60;;;21.30;99.90;;;;;;5017175;28;20435;-62
2023/07/04 05:58:47;;;;;;;992.15;851.83;;;20.90;99.90;;;;;;5017090;28;20439;-61
2023/07/04 06:01:20;;;;;;;1024.53;847.60;;;21.30;99.90;;;;;;5015045;28;20454;-61
2023/07/04 06:03:48;;;;;;;949.72;849.92;;;21.60;99.90;;;;;;5017103;28;20434;-61
2023/07/04 06:06:33;;;;;;;984.47;872.22;;;21.30;99.90;;;;;;5014668;28;20521;-60
2023/07/04 06:09:03;;;;;;;981.03;803.28;;;21.50;99.90;;;;;;5016204;28;20498;-60
2023/07/04 06:11:34;;;;;;;979.80;798.22;;;21.50;99.90;;;;;;5016298;28;20438;-61
2023/07/04 06:14:05;;;;;;;994.65;809.92;;;21.80;99.90;;;;;;5015759;28;20532;-61
2023/07/04 06:16:35;;;;;;;1007.70;825.55;;;22.40;99.90;;;;;;5016959;28;20561;-61
2023/07/04 06:19:02;;;;;;;1030.28;857.53;;;22.90;99.90;;;;;;5018354;28;20593;-61
2023/07/04 06:21:29;;;;;;;1022.20;886.53;;;23.30;99.90;;;;;;5021188;28;20512;-61
2023/07/04 06:24:14;;;;;;;1002.78;832.58;;;23.60;99.90;;;;;;5001297;28;20524;-61
2023/07/04 06:26:40;;;;;;;1007.77;845.80;;;24.10;99.90;;;;;;5007221;28;20446;-60
2023/07/04 06:29:07;;;;;;;1019.80;860.15;;;24.00;99.90;;;;;;5013414;28;20465;-61
2023/07/04 06:31:34;;;;;;;1028.10;874.13;;;24.10;99.90;;;;;;5017828;28;20452;-60
2023/07/04 06:34:03;;;;;;;1000.53;839.53;;;24.20;99.90;;;;;;5018035;28;21073;-61
2023/07/04 06:36:30;;;;;;;1000.75;832.95;;;24.10;99.90;;;;;;5012859;28;20473;-61
2023/07/04 06:39:00;;;;;;;984.63;876.67;;;23.70;99.90;;;;;;5009656;28;20511;-61
2023/07/04 06:41:27;;;;;;;1002.47;836.97;;;23.90;99.90;;;;;;5014677;28;20427;-61
2023/07/04 06:43:54;;;;;;;999.45;840.88;;;24.30;99.90;;;;;;5015715;28;20496;-61
2023/07/04 06:46:22;;;;;;;978.20;820.17;;;24.70;99.90;;;;;;5015648;28;20427;-61
2023/07/04 06:48:50;;;;;;;1009.53;856.22;;;24.90;99.90;;;;;;5011735;28;20445;-61
2023/07/04 06:51:19;;;;;;;1005.30;850.42;;;24.40;99.90;;;;;;5013583;28;20470;-63
2023/07/04 06:53:52;;;;;;;1028.22;878.70;;;24.60;99.90;;;;;;5013132;28;20434;-62
2023/07/04 06:56:22;;;;;;;1012.55;862.33;;;24.40;99.90;;;;;;5017748;28;20431;-62
2023/07/04 06:58:52;;;;;;;1031.65;891.30;;;24.80;99.90;;;;;;5018642;28;20449;-61
2023/07/04 07:01:26;;;;;;;1027.17;886.90;;;24.80;99.90;;;;;;5018892;28;24361;-62
2023/07/04 07:03:55;;;;;;;1059.00;926.37;;;24.80;99.90;;;;;;5020059;28;20455;-62
2023/07/04 07:06:22;;;;;;;1054.13;919.70;;;24.60;99.90;;;;;;5019279;28;20459;-60
2023/07/04 07:08:49;;;;;;;1063.72;933.63;;;25.00;99.90;;;;;;5019980;28;20436;-60
2023/07/04 07:11:17;;;;;;;1030.47;897.25;;;25.40;99.90;;;;;;5018233;28;20443;-60
2023/07/04 07:13:46;;;;;;;1066.90;948.80;;;25.60;99.90;;;;;;5019048;28;20435;-60
2023/07/04 07:16:22;;;;;;;1116.30;995.15;;;25.60;99.90;;;;;;5017871;28;20470;-60
2023/07/04 07:18:51;;;;;;;1124.45;999.90;;;26.10;99.90;;;;;;5018375;28;20426;-60
2023/07/04 07:21:21;;;;;;;1090.60;970.73;;;26.00;99.90;;;;;;5019524;28;20621;-61
2023/07/04 07:23:49;;;;;;;1068.60;952.20;;;26.10;99.90;;;;;;5017250;28;21046;-61
2023/07/04 07:26:26;;;;;;;1069.57;952.35;;;25.80;99.90;;;;;;5017827;28;20516;-60
2023/07/04 07:28:55;;;;;;;1069.95;952.13;;;25.10;99.90;;;;;;5021172;28;20438;-60
2023/07/04 07:31:25;;;;;;;1022.97;907.38;;;24.70;99.90;;;;;;5019164;28;20484;-61
2023/07/04 07:33:59;;;;;;;1058.03;940.75;;;23.80;99.90;;;;;;5020755;28;20458;-61
2023/07/04 07:36:38;;;;;;;1090.82;972.13;;;23.80;99.90;;;;;;5018646;28;20901;-61
2023/07/04 07:39:08;;;;;;;1059.15;908.08;;;24.30;99.90;;;;;;5024778;28;20831;-60
2023/07/04 07:41:39;;;;;;;1047.28;931.15;;;24.50;99.90;;;;;;5020269;28;20501;-60
2023/07/04 07:44:07;;;;;;;1027.40;905.35;;;25.10;99.90;;;;;;5008443;28;20441;-60
2023/07/04 07:46:35;;;;;;;1062.65;945.85;;;25.70;99.90;;;;;;5013670;28;20489;-60
2023/07/04 07:49:02;;;;;;;1099.90;979.03;;;26.50;99.90;;;;;;5018953;28;21023;-60
2023/07/04 07:51:30;;;;;;;1126.37;999.90;;;26.80;99.90;;;;;;5021543;28;20438;-60
2023/07/04 07:53:58;;;;;;;1083.13;965.23;;;27.00;99.90;;;;;;5013723;28;20449;-60
2023/07/04 07:56:30;;;;;;;1116.40;996.53;;;27.20;99.90;;;;;;5016270;28;20438;-60
2023/07/04 07:58:58;;;;;;;1110.70;942.87;;;27.20;99.90;;;;;;5017800;28;20438;-60
2023/07/04 08:01:29;;;;;;;1072.75;902.05;;;26.50;99.90;;;;;;5015453;28;20456;-60
2023/07/04 08:03:57;;;;;;;1178.18;999.90;;;26.20;99.90;;;;;;5016131;28;20500;-60
2023/07/04 08:06:35;;;;;;;1128.28;999.90;;;25.50;99.90;;;;;;5018624;28;20434;-60
2023/07/04 08:09:04;;;;;;;1000.38;888.42;;;26.10;99.90;;;;;;5020739;28;20449;-60
2023/07/04 08:11:31;;;;;;;1032.60;919.23;;;26.70;99.90;;;;;;5021944;28;20469;-60
2023/07/04 08:13:59;;;;;;;1069.78;953.55;;;26.50;99.90;;;;;;5017427;28;20443;-61
2023/07/04 08:16:29;;;;;;;1068.32;951.50;;;26.40;99.90;;;;;;5015586;28;20442;-61
2023/07/04 08:18:58;;;;;;;1124.37;999.90;;;26.00;99.90;;;;;;5015274;28;20544;-60
2023/07/04 08:21:28;;;;;;;1078.10;960.75;;;26.10;99.90;;;;;;5016773;28;20450;-61
2023/07/04 08:23:55;;;;;;;1038.43;924.60;;;26.20;99.90;;;;;;5015426;28;20439;-60
2023/07/04 08:26:26;;;;;;;1059.75;943.75;;;26.20;99.90;;;;;;5020825;28;20446;-60
2023/07/04 08:28:55;;;;;;;997.22;883.83;;;26.40;99.90;;;;;;5018928;28;20443;-61
2023/07/04 08:31:23;;;;;;;1078.40;961.00;;;26.80;99.90;;;;;;5001058;28;21175;-61
2023/07/04 08:33:50;;;;;;;1071.93;953.88;;;;;;;;;;5019997;28;20443;-60
2023/07/04 08:36:18;;;;;;;1026.47;932.25;;;;;;;;;;5009444;28;20496;-62
2023/07/04 08:38:47;;;;;;;1044.80;937.37;;;;;;;;;;5016415;28;20563;-61
2023/07/04 08:41:28;;;;;;;1038.68;915.38;;;;;;;;;;5019926;28;20505;-61
2023/07/04 08:43:55;;;;;;;970.00;829.22;;;;;;;;;;5011591;28;20443;-61
2023/07/04 08:46:23;;;;;;;1008.22;872.55;;;;;;;;;;5017368;28;20435;-61
2023/07/04 08:48:50;;;;;;;1089.13;969.60;;;;;;;;;;5019889;28;20464;-60
2023/07/04 08:51:21;;;;;;;1039.82;923.05;;;;;;;;;;5020458;28;20500;-61
2023/07/04 08:53:51;;;;;;;1067.43;950.30;;;;;;;;;;5019305;28;20442;-61
2023/07/04 08:56:33;;;;;;;1103.10;983.43;;;;;;;;;;5017707;28;20467;-61
2023/07/04 08:59:19;;;;;;;1048.68;932.53;;;;;;;;;;5018223;28;20436;-60
2023/07/04 09:01:58;;;;;;;1022.15;903.45;;;;;;;;;;5017238;28;20492;-61
2023/07/04 09:04:31;;;;;;;1048.82;932.85;;;;;;;;;;5019621;28;20440;-62
2023/07/04 09:07:20;;;;;;;1074.60;956.80;;;;;;;;;;5019396;28;20434;-61
2023/07/04 09:09:55;;;;;;;1095.97;976.95;;;;;;;;;;5013836;28;20961;-60
2023/07/04 09:12:23;;;;;;;1043.03;927.72;;;;;;;;;;5015873;28;20443;-60
2023/07/04 09:14:57;;;;;;;1063.47;946.65;;;;;;;;;;5018978;28;20437;-61
2023/07/04 09:17:29;;;;;;;1063.53;946.53;;;;;;;;;;5016601;28;20433;-62
2023/07/04 09:19:57;;;;;;;1071.65;954.08;;;;;;;;;;5019367;28;20452;-60
2023/07/04 09:22:24;;;;;;;1030.75;916.70;;;;;;;;;;5017593;28;20994;-60
2023/07/04 09:24:51;;;;;;;1033.07;918.38;;;;;;;;;;5014659;28;20771;-60
2023/07/04 09:27:19;;;;;;;1087.15;968.88;;;;;;;;;;5016229;28;20453;-61
2023/07/04 09:29:52;;;;;;;1008.45;895.53;;;;;;;;;;5016611;28;20791;-61
2023/07/04 09:32:21;;;;;;;995.10;877.85;;;;;;;;;;5021266;28;20436;-62
2023/07/04 09:34:51;;;;;;;1013.92;901.55;;;;;;;;;;5020403;28;20454;-63
2023/07/04 09:37:18;;;;;;;1097.03;979.83;;;;;;;;;;5023145;28;20865;-61
2023/07/04 09:39:49;;;;;;;1133.88;999.90;;;;;;;;;;5019966;28;20492;-63
2023/07/04 09:42:20;;;;;;;1082.22;965.30;;;;;;;;;;5022588;28;20570;-63
2023/07/04 09:45:11;;;;;;;1080.70;924.72;;;;;;;;;;5017499;28;22917;-62
2023/07/04 09:47:46;;;;;;;1027.53;913.65;;;;;;;;;;5016495;28;20454;-62
2023/07/04 09:50:24;;;;;;;1092.72;974.38;;;;;;;;;;5020199;28;20442;-63
2023/07/04 09:53:04;;;;;;;1100.75;981.33;;;;;;;;;;5014294;28;20530;-62
2023/07/04 09:55:33;;;;;;;1140.45;999.90;;;;;;;;;;5016947;28;20447;-63
2023/07/04 09:58:15;;;;;;;1095.07;976.40;;;;;;;;;;5021880;28;20430;-63
2023/07/04 10:00:46;;;;;;;1180.23;999.90;;;;;;;;;;4995432;28;21382;-62
2023/07/04 10:03:17;;;;;;;1175.30;999.90;;;;;;;;;;5013985;28;20547;-61
2023/07/04 10:05:48;;;;;;;1120.63;999.90;;;;;;;;;;5018860;28;20430;-62
2023/07/04 10:08:15;;;;;;;1151.63;999.90;;;;;;;;;;5018861;28;20899;-63
2023/07/04 10:11:05;;;;;;;1148.40;999.90;;;;;;;;;;5020162;28;20526;-63
2023/07/04 10:13:39;;;;;;;1163.38;999.90;;;;;;;;;;5018492;28;20792;-63
2023/07/04 10:16:20;;;;;;;1137.72;999.90;;;;;;;;;;5019701;28;20431;-63
2023/07/04 10:18:47;;;;;;;1167.93;999.90;;;;;;;;;;5008270;28;20496;-63
2023/07/04 10:21:18;;;;;;;1108.40;999.90;;;;;;;;;;5020564;28;20434;-62
2023/07/04 10:23:46;;;;;;;983.10;900.80;;;;;;;;;;5003899;28;20439;-63
2023/07/04 10:26:15;;;;;;;1113.15;999.90;;;;;;;;;;4992708;28;20471;-62
2023/07/04 10:28:43;;;;;;;856.67;781.95;;;;;;;;;;5013067;28;21000;-63
2023/07/04 10:31:11;;;;;;;1129.60;999.90;;;;;;;;;;5021844;28;20436;-62
2023/07/04 10:33:57;;;;;;;743.85;679.38;;;;;;;;;;4997728;28;20496;-63
2023/07/04 10:36:26;;;;;;;702.47;640.57;;;;;;;;;;5016015;28;20446;-62
2023/07/04 10:38:56;;;;;;;583.20;533.08;;;;;;;;;;5016238;28;20427;-63
2023/07/04 10:41:38;;;;;;;1102.82;999.08;;;;;;;;;;5015025;28;20439;-62
2023/07/04 10:44:16;;;;;;;249.80;230.13;;;;;;;;;;5018265;28;21865;-63
2023/07/04 10:46:49;;;;;;;61.50;56.15;;;;;;;;;;5014652;28;20924;-63
2023/07/04 10:49:18;;;;;;;154.60;141.53;;;;;;;;;;5015795;28;20446;-62
2023/07/04 10:51:48;;;;;;;187.05;171.85;;;;;;;;;;5017635;28;20457;-64
2023/07/04 10:54:22;;;;;;;24.05;22.80;;;;;;;;;;5015567;28;20903;-63
2023/07/04 10:56:51;;;;;;;1036.72;949.90;;;;;;;;;;5012710;28;20558;-64
2023/07/04 10:59:24;;;;;;;998.77;915.37;;;;;;;;;;5017816;28;20427;-64
2023/07/04 11:02:04;;;;;;;894.87;819.73;;;;;;;;;;5011838;28;20439;-63
2023/07/04 11:04:33;;;;;;;1024.47;940.88;;;;;;;;;;5020764;28;20918;-64
2023/07/04 11:07:05;;;;;;;889.53;815.00;;;;;;;;;;5014948;28;20433;-63
2023/07/04 11:09:38;;;;;;;630.27;574.17;;;;;;;;;;4997790;28;20440;-63
2023/07/04 11:12:12;;;;;;;181.10;167.02;;;;;;;;;;5012305;28;20436;-63
2023/07/04 11:14:40;;;;;;;43.15;40.38;;;;;;;;;;5010961;28;21123;-62
2023/07/04 11:17:13;;;;;;;64.68;58.65;;;;;;;;;;5014008;28;20435;-63
2023/07/04 11:20:12;;;;;;;431.58;389.45;;;;;;;;;;5015143;28;20439;-63
2023/07/04 11:22:46;;;;;;;1125.63;999.90;;;;;;;;;;5011531;28;20929;-63
2023/07/04 11:25:30;;;;;;;739.53;674.58;;;;;;;;;;5013472;28;20426;-64
2023/07/04 11:28:21;;;;;;;1122.50;999.90;;;;;;;;;;5014056;28;20497;-64
2023/07/04 11:30:49;;;;;;;1128.00;999.90;;;;;;;;;;4999656;28;20560;-64
2023/07/04 11:33:37;;;;;;;373.13;341.03;;;;;;;;;;5014383;28;20438;-63
2023/07/04 11:36:06;;;;;;;260.88;240.20;;;;;;;;;;5014976;28;20454;-64
2023/07/04 11:38:34;;;;;;;1104.70;994.40;;;;;;;;;;5014294;28;20464;-63
2023/07/04 11:41:03;;;;;;;687.17;625.83;;;;;;;;;;5012757;28;20455;-63
2023/07/04 11:43:34;;;;;;;717.73;655.30;;;;;;;;;;5014538;28;20435;-63
2023/07/04 11:46:05;;;;;;;40.97;38.22;;;;;;;;;;5019095;28;20430;-64
2023/07/04 11:48:34;;;;;;;3.90;3.80;;;;;;;;;;5018684;28;20923;-63
2023/07/04 11:51:06;;;;;;;1090.07;984.78;;;;;;;;;;5019995;28;22228;-64
2023/07/04 11:53:39;;;;;;;819.13;748.20;;;;;;;;;;5017995;28;20515;-62
2023/07/04 11:56:17;;;;;;;1117.25;999.90;;;;;;;;;;5021821;28;20435;-63
2023/07/04 11:58:45;;;;;;;515.88;470.85;;;;;;;;;;5016974;28;20496;-63
2023/07/04 12:01:14;;;;;;;1144.35;999.90;;;;;;;;;;5003247;28;20486;-64
2023/07/04 12:03:46;;;;;;;803.22;735.15;;;;;;;;;;5019987;28;20858;-64
2023/07/04 12:06:33;;;;;;;738.22;676.47;;;;;;;;;;5016677;28;20431;-63
2023/07/04 12:09:01;;;;;;;772.05;704.63;;;;;;;;;;5015692;28;20438;-63
2023/07/04 12:11:40;;;;;;;707.97;646.55;;;;;;;;;;5015270;28;20512;-69
2023/07/04 12:14:13;;;;;;;19.77;18.73;;;;;;;;;;5020402;28;20933;-63
2023/07/04 12:16:41;;;;;;;241.60;221.27;;;;;;;;;;5020126;28;20480;-61
2023/07/04 12:19:14;;;;;;;1039.43;948.67;;;;;;;;;;5017981;28;20437;-61
2023/07/04 12:21:42;;;;;;;665.47;606.80;;;;;;;;;;5017767;28;20431;-61
2023/07/04 12:24:11;;;;;;;332.70;304.30;;;;;;;;;;5016228;28;20546;-62
2023/07/04 12:26:42;;;;;;;1069.47;965.17;;;;;;;;;;5013952;28;20435;-61
2023/07/04 12:29:10;;;;;;;1039.72;947.53;;;;;;;;;;5015805;28;20461;-60
2023/07/04 12:31:46;;;;;;;607.87;553.27;;;;;;;;;;5015141;28;20435;-62
2023/07/04 12:34:14;;;;;;;761.45;695.30;;;;;;;;;;5015016;28;20465;-60
2023/07/04 12:36:53;;;;;;;449.33;408.08;;;;;;;;;;5014835;28;20505;-61
2023/07/04 12:39:28;;;;;;;632.88;576.75;;;;;;;;;;5002023;28;21092;-61
2023/07/04 12:41:56;;;;;;;225.98;205.82;;;;;;;;;;5019720;28;20465;-61
2023/07/04 12:44:24;;;;;;;738.55;671.92;;;;;;;;;;5016644;28;20477;-60
2023/07/04 12:46:54;;;;;;;917.53;840.33;;;;;;;;;;5021841;28;20445;-61
2023/07/04 12:49:27;;;;;;;934.55;852.60;;;;;;;;;;5020932;28;20951;-61
2023/07/04 12:51:59;;;;;;;1052.70;959.85;;;;;;;;;;5018046;28;20513;-63
2023/07/04 12:54:29;;;;;;;818.70;744.67;;;;;;;;;;5013849;28;20431;-61
2023/07/04 12:56:56;;;;;;;1046.50;955.08;;;;;;;;;;5017939;28;20508;-62
2023/07/04 12:59:38;;;;;;;592.33;538.58;;;;;;;;;;5021198;28;20433;-61
2023/07/04 13:02:14;;;;;;;771.65;706.03;;;;;;;;;;5017370;28;20435;-63
2023/07/04 13:04:41;;;;;;;1059.63;967.08;;;;;;;;;;5015610;28;20433;-63
2023/07/04 13:07:10;;;;;;;528.13;481.83;;;;;;;;;;5014155;28;20426;-62
2023/07/04 13:09:41;;;;;;;341.92;310.83;;;;;;;;;;5019179;28;20468;-60
2023/07/04 13:12:09;;;;;;;637.78;579.25;;;;;;;;;;5011223;28;20464;-61
2023/07/04 13:14:36;;;;;;;5.60;5.30;;;;;;;;;;5011559;28;20447;-63
2023/07/04 13:17:07;;;;;;;384.42;351.30;;;;;;;;;;5015574;28;20431;-61
2023/07/04 13:19:37;;;;;;;648.38;590.17;;;;;;;;;;5014865;28;20477;-64
2023/07/04 13:22:14;;;;;;;873.47;798.73;;;;;;;;;;5000111;28;20521;-63
2023/07/04 13:24:42;;;;;;;44.88;42.03;;;;;;;;;;5015323;28;20429;-60
2023/07/04 13:27:30;;;;;;;720.03;658.13;;;;;;;;;;5018132;28;20458;-62
2023/07/04 13:29:58;;;;;;;31.38;26.77;;;;;;;;;;5015712;28;20438;-64
2023/07/04 13:32:35;;;;;;;1.95;1.92;;;;;;;;;;5018912;28;20426;-62